createdAt,value
2023-02-19T00:01:45.680Z,11.20
2023-02-19T00:04:14.316Z,11.20
2023-02-19T00:06:42.347Z,11.20
2023-02-19T00:09:10.541Z,11.20
2023-02-19T00:11:39.269Z,11.20
2023-02-19T00:14:07.278Z,11.10
2023-02-19T00:16:36.975Z,11.10
2023-02-19T00:19:05.578Z,11.10
2023-02-19T00:21:33.155Z,11.20
2023-02-19T00:24:01.978Z,11.10
2023-02-19T00:26:29.679Z,11.10
2023-02-19T00:28:58.647Z,11.10
2023-02-19T00:31:27.080Z,11.10
2023-02-19T00:33:55.624Z,11.00
2023-02-19T00:36:22.884Z,11.00
2023-02-19T00:38:50.206Z,11.00
2023-02-19T00:41:20.000Z,11.00
2023-02-19T00:43:51.687Z,11.00
2023-02-19T00:46:22.082Z,11.00
2023-02-19T00:48:49.374Z,11.00
2023-02-19T00:51:16.463Z,11.10
2023-02-19T00:53:43.561Z,11.10
2023-02-19T00:56:10.678Z,11.10
2023-02-19T00:58:37.754Z,11.10
2023-02-19T01:01:06.365Z,11.10
2023-02-19T01:03:35.068Z,11.10
2023-02-19T01:06:02.156Z,11.10
2023-02-19T01:08:30.961Z,11.10
2023-02-19T01:10:57.878Z,11.10
2023-02-19T01:13:25.048Z,11.00
2023-02-19T01:15:52.423Z,11.00
2023-02-19T01:18:19.297Z,11.00
2023-02-19T01:20:47.544Z,11.00
2023-02-19T01:23:14.582Z,11.00
2023-02-19T01:25:42.361Z,11.00
2023-02-19T01:28:10.872Z,11.00
2023-02-19T01:30:39.220Z,11.00
2023-02-19T01:33:07.138Z,11.00
2023-02-19T01:35:34.468Z,10.90
2023-02-19T01:38:02.726Z,10.90
2023-02-19T01:40:29.589Z,10.90
2023-02-19T01:42:56.473Z,10.90
2023-02-19T01:45:27.997Z,10.90
2023-02-19T01:48:04.342Z,10.90
2023-02-19T01:50:36.106Z,10.80
2023-02-19T01:53:06.767Z,10.80
2023-02-19T01:55:35.098Z,10.80
2023-02-19T01:58:03.104Z,10.80
2023-02-19T02:00:30.639Z,10.80
2023-02-19T02:02:58.718Z,10.70
2023-02-19T02:05:37.790Z,10.70
2023-02-19T02:08:24.663Z,10.70
2023-02-19T02:10:52.568Z,10.70
2023-02-19T02:13:19.751Z,10.70
2023-02-19T02:15:55.952Z,10.60
2023-02-19T02:18:31.899Z,10.60
2023-02-19T02:21:45.864Z,10.60
2023-02-19T02:24:44.763Z,10.60
2023-02-19T02:27:49.135Z,10.60
2023-02-19T02:30:31.877Z,10.50
2023-02-19T02:33:05.774Z,10.50
2023-02-19T02:35:39.064Z,10.50
2023-02-19T02:38:09.172Z,10.50
2023-02-19T02:40:37.316Z,10.50
2023-02-19T02:43:04.226Z,10.50
2023-02-19T02:45:36.041Z,10.50
2023-02-19T02:48:19.771Z,10.50
2023-02-19T02:50:50.406Z,10.50
2023-02-19T02:53:39.946Z,10.50
2023-02-19T02:56:07.777Z,10.50
2023-02-19T02:58:35.302Z,10.50
2023-02-19T03:01:26.087Z,10.50
2023-02-19T03:03:57.768Z,10.50
2023-02-19T03:06:28.704Z,10.50
2023-02-19T03:09:00.645Z,10.50
2023-02-19T03:11:49.740Z,10.50
2023-02-19T03:14:38.969Z,10.50
2023-02-19T03:17:30.455Z,10.50
2023-02-19T03:20:00.939Z,10.60
2023-02-19T03:22:31.241Z,10.60
2023-02-19T03:25:20.625Z,10.60
2023-02-19T03:27:49.474Z,10.60
2023-02-19T03:30:19.563Z,10.70
2023-02-19T03:32:51.886Z,10.70
2023-02-19T03:35:22.218Z,10.70
2023-02-19T03:37:57.162Z,10.70
2023-02-19T03:40:29.569Z,10.80
2023-02-19T03:43:05.167Z,10.80
2023-02-19T03:45:38.497Z,10.80
2023-02-19T03:48:20.037Z,10.80
2023-02-19T03:50:51.210Z,10.80
2023-02-19T03:53:26.585Z,10.80
2023-02-19T03:56:06.036Z,10.80
2023-02-19T03:58:38.442Z,10.80
2023-02-19T04:01:10.765Z,10.80
2023-02-19T04:03:43.767Z,10.80
2023-02-19T04:06:13.876Z,10.80
2023-02-19T04:08:45.737Z,10.80
2023-02-19T04:11:14.732Z,10.80
2023-02-19T04:13:45.823Z,10.90
2023-02-19T04:16:18.406Z,10.90
2023-02-19T04:18:49.419Z,10.90
2023-02-19T04:21:17.165Z,10.90
2023-02-19T04:23:45.575Z,10.90
2023-02-19T04:26:13.641Z,10.90
2023-02-19T04:28:43.033Z,11.00
2023-02-19T04:31:10.644Z,11.00
2023-02-19T04:33:38.103Z,11.00
2023-02-19T04:36:09.823Z,11.00
2023-02-19T04:38:36.710Z,11.00
2023-02-19T04:41:03.713Z,11.00
2023-02-19T04:43:30.659Z,11.00
2023-02-19T04:46:00.609Z,11.00
2023-02-19T04:48:27.758Z,11.00
2023-02-19T04:50:54.792Z,11.00
2023-02-19T04:53:23.131Z,11.00
2023-02-19T04:55:53.283Z,11.00
2023-02-19T04:58:21.528Z,11.00
2023-02-19T05:00:52.748Z,10.90
2023-02-19T05:03:19.805Z,10.90
2023-02-19T05:05:46.776Z,10.90
2023-02-19T05:08:13.642Z,10.90
2023-02-19T05:10:41.934Z,10.90
2023-02-19T05:13:08.891Z,10.90
2023-02-19T05:15:35.890Z,10.90
2023-02-19T05:18:03.263Z,10.60
2023-02-19T05:20:30.275Z,10.90
2023-02-19T05:22:57.360Z,10.90
2023-02-19T05:25:24.276Z,10.80
2023-02-19T05:28:12.643Z,10.90
2023-02-19T05:30:39.488Z,10.90
2023-02-19T05:33:06.258Z,10.90
2023-02-19T05:35:33.088Z,10.90
2023-02-19T05:37:59.971Z,10.90
2023-02-19T05:40:26.995Z,10.90
2023-02-19T05:42:55.349Z,10.90
2023-02-19T05:45:22.250Z,10.90
2023-02-19T05:47:49.519Z,10.90
2023-02-19T05:50:16.530Z,10.90
2023-02-19T05:52:44.214Z,10.90
2023-02-19T05:55:11.385Z,10.90
2023-02-19T05:57:43.411Z,10.90
2023-02-19T06:00:13.252Z,10.90
2023-02-19T06:02:40.259Z,10.90
2023-02-19T06:05:07.968Z,10.90
2023-02-19T06:07:35.651Z,10.90
2023-02-19T06:10:02.642Z,10.90
2023-02-19T06:12:29.518Z,10.90
2023-02-19T06:14:56.406Z,10.90
2023-02-19T06:17:24.545Z,11.00
2023-02-19T06:19:51.463Z,10.90
2023-02-19T06:22:18.244Z,10.90
2023-02-19T06:24:45.033Z,10.90
2023-02-19T06:27:11.883Z,10.90
2023-02-19T06:29:38.701Z,10.90
2023-02-19T06:32:06.332Z,10.90
2023-02-19T06:34:35.046Z,10.90
2023-02-19T06:37:02.102Z,10.90
2023-02-19T06:39:28.990Z,10.90
2023-02-19T06:41:56.434Z,10.90
2023-02-19T06:44:23.311Z,10.80
2023-02-19T06:46:50.327Z,10.80
2023-02-19T06:49:17.793Z,10.80
2023-02-19T06:51:46.082Z,10.80
2023-02-19T06:54:13.323Z,10.80
2023-02-19T06:56:41.870Z,10.90
2023-02-19T06:59:11.517Z,10.90
2023-02-19T07:01:39.425Z,10.90
2023-02-19T07:04:07.597Z,10.90
2023-02-19T07:06:35.826Z,10.90
2023-02-19T07:09:06.165Z,10.90
2023-02-19T07:11:34.695Z,10.90
2023-02-19T07:14:04.735Z,11.00
2023-02-19T07:16:31.752Z,10.90
2023-02-19T07:18:59.522Z,10.90
2023-02-19T07:21:27.548Z,10.90
2023-02-19T07:23:54.872Z,10.90
2023-02-19T07:26:23.751Z,10.90
2023-02-19T07:28:51.896Z,10.90
2023-02-19T07:31:21.343Z,10.90
2023-02-19T07:33:48.571Z,10.90
2023-02-19T07:36:17.908Z,10.80
2023-02-19T07:38:45.821Z,10.80
2023-02-19T07:41:13.111Z,10.80
2023-02-19T07:43:41.517Z,10.80
2023-02-19T07:46:10.123Z,10.80
2023-02-19T07:48:38.686Z,10.80
2023-02-19T07:51:08.152Z,10.70
2023-02-19T07:53:35.813Z,10.80
2023-02-19T07:56:04.719Z,10.80
2023-02-19T07:58:32.668Z,10.70
2023-02-19T08:01:09.614Z,10.80
2023-02-19T08:03:36.907Z,10.80
2023-02-19T08:06:04.142Z,10.80
2023-02-19T08:08:31.104Z,10.80
2023-02-19T08:11:32.886Z,10.80
2023-02-19T08:13:59.681Z,10.90
2023-02-19T08:16:42.203Z,10.90
2023-02-19T08:19:10.226Z,10.90
2023-02-19T08:21:37.096Z,10.90
2023-02-19T08:24:04.636Z,10.90
2023-02-19T08:26:32.287Z,10.90
2023-02-19T08:28:59.213Z,10.90
2023-02-19T08:31:27.780Z,10.90
2023-02-19T08:33:54.818Z,10.90
2023-02-19T08:36:21.772Z,10.90
2023-02-19T08:38:48.622Z,10.90
2023-02-19T08:41:15.998Z,10.90
2023-02-19T08:43:43.394Z,10.90
2023-02-19T08:46:11.837Z,10.90
2023-02-19T08:48:40.804Z,10.90
2023-02-19T08:51:09.945Z,10.90
2023-02-19T08:53:38.762Z,10.90
2023-02-19T08:56:06.504Z,11.00
2023-02-19T08:58:33.392Z,11.00
2023-02-19T09:01:00.317Z,11.00
2023-02-19T09:03:27.184Z,11.10
2023-02-19T09:05:55.451Z,11.10
2023-02-19T09:08:22.253Z,11.20
2023-02-19T09:10:58.072Z,11.20
2023-02-19T09:13:25.018Z,11.20
2023-02-19T09:15:51.850Z,11.30
2023-02-19T09:18:18.763Z,11.30
2023-02-19T09:20:45.685Z,11.40
2023-02-19T09:23:13.934Z,11.40
2023-02-19T09:25:40.839Z,11.40
2023-02-19T09:28:07.711Z,11.50
2023-02-19T09:30:34.676Z,11.50
2023-02-19T09:33:01.641Z,11.40
2023-02-19T09:35:28.576Z,11.50
2023-02-19T09:37:55.453Z,11.40
2023-02-19T09:40:23.687Z,11.40
2023-02-19T09:42:51.397Z,11.50
2023-02-19T09:45:23.593Z,11.50
2023-02-19T09:47:54.246Z,11.50
2023-02-19T09:50:23.918Z,11.50
2023-02-19T09:52:54.738Z,11.50
2023-02-19T09:55:30.565Z,11.40
2023-02-19T09:57:59.108Z,11.40
2023-02-19T10:00:29.036Z,11.40
2023-02-19T10:03:02.567Z,11.50
2023-02-19T10:05:29.869Z,11.50
2023-02-19T10:07:57.845Z,11.50
2023-02-19T10:10:32.725Z,11.50
2023-02-19T10:13:11.139Z,11.50
2023-02-19T10:15:44.784Z,11.50
2023-02-19T10:18:11.740Z,11.50
2023-02-19T10:20:38.878Z,11.40
2023-02-19T10:23:07.657Z,11.40
2023-02-19T10:25:42.885Z,11.40
2023-02-19T10:28:14.651Z,11.30
2023-02-19T10:30:41.780Z,11.30
2023-02-19T10:33:10.967Z,11.20
2023-02-19T10:35:50.786Z,11.20
2023-02-19T10:38:18.843Z,11.20
2023-02-19T10:40:48.411Z,11.20
2023-02-19T10:43:23.370Z,11.20
2023-02-19T10:45:53.035Z,11.20
2023-02-19T10:48:24.828Z,11.20
2023-02-19T10:50:58.030Z,11.30
2023-02-19T10:53:38.674Z,11.40
2023-02-19T10:56:09.177Z,11.50
2023-02-19T10:58:37.773Z,11.60
2023-02-19T11:01:20.024Z,11.60
2023-02-19T11:03:48.505Z,11.70
2023-02-19T11:06:17.561Z,11.80
2023-02-19T11:08:54.132Z,11.80
2023-02-19T11:11:30.212Z,11.90
2023-02-19T11:13:58.061Z,12.10
2023-02-19T11:16:41.367Z,12.20
2023-02-19T11:19:26.583Z,12.30
2023-02-19T11:21:54.588Z,12.40
2023-02-19T11:24:34.072Z,12.60
2023-02-19T11:27:05.470Z,12.90
2023-02-19T11:29:34.952Z,13.10
2023-02-19T11:32:22.192Z,13.40
2023-02-19T11:34:49.261Z,13.80
2023-02-19T11:37:17.261Z,14.10
2023-02-19T11:39:46.541Z,14.30
2023-02-19T11:42:36.904Z,14.40
2023-02-19T11:45:34.000Z,14.40
2023-02-19T11:48:17.028Z,14.30
2023-02-19T12:02:59.789Z,14.40
2023-02-19T12:05:37.015Z,14.60
2023-02-19T12:08:26.158Z,14.60
2023-02-19T12:11:16.220Z,14.50
2023-02-19T12:14:01.513Z,14.40
2023-02-19T12:16:36.762Z,14.20
2023-02-19T12:19:36.362Z,14.10
2023-02-19T12:22:28.122Z,14.00
2023-02-19T12:25:09.750Z,13.90
2023-02-19T12:27:52.748Z,13.80
2023-02-19T12:30:31.870Z,13.80
2023-02-19T12:33:29.861Z,13.80
2023-02-19T12:36:06.780Z,13.80
2023-02-19T12:38:43.146Z,13.60
2023-02-19T12:41:23.579Z,13.50
2023-02-19T12:43:57.961Z,13.40
2023-02-19T12:46:31.369Z,13.30
2023-02-19T12:49:05.786Z,13.30
2023-02-19T12:51:39.823Z,13.40
2023-02-19T12:54:13.698Z,13.40
2023-02-19T12:56:44.383Z,13.60
2023-02-19T12:59:15.727Z,13.80
2023-02-19T13:01:49.531Z,14.00
2023-02-19T13:04:28.162Z,14.10
2023-02-19T13:07:01.173Z,14.10
2023-02-19T13:09:33.453Z,14.00
2023-02-19T13:12:06.411Z,14.00
2023-02-19T13:14:36.556Z,14.00
2023-02-19T13:17:11.775Z,13.90
2023-02-19T13:19:40.404Z,13.80
2023-02-19T13:22:54.362Z,13.70
2023-02-19T13:25:22.169Z,13.70
2023-02-19T13:28:06.836Z,13.70
2023-02-19T13:31:03.462Z,13.60
2023-02-19T13:33:40.068Z,13.60
2023-02-19T13:36:14.472Z,13.60
2023-02-19T13:38:44.079Z,13.70
2023-02-19T13:41:20.052Z,13.70
2023-02-19T13:43:54.201Z,13.90
2023-02-19T13:46:21.255Z,14.10
2023-02-19T13:48:48.356Z,14.10
2023-02-19T13:51:49.158Z,14.20
2023-02-19T13:54:26.274Z,14.20
2023-02-19T13:57:27.835Z,14.30
2023-02-19T13:59:55.319Z,14.20
2023-02-19T14:02:30.530Z,14.20
2023-02-19T14:05:00.284Z,14.20
2023-02-19T14:07:51.633Z,14.10
2023-02-19T14:10:50.926Z,14.00
2023-02-19T14:13:51.552Z,13.90
2023-02-19T14:16:30.920Z,13.80
2023-02-19T14:18:57.780Z,13.60
2023-02-19T14:21:26.172Z,13.50
2023-02-19T14:23:56.777Z,13.50
2023-02-19T14:26:25.391Z,13.40
2023-02-19T14:28:53.594Z,13.30
2023-02-19T14:31:27.819Z,13.30
2023-02-19T14:33:56.960Z,13.20
2023-02-19T14:36:40.522Z,13.20
2023-02-19T14:39:14.373Z,13.30
2023-02-19T14:41:45.332Z,13.40
2023-02-19T14:44:18.254Z,13.40
2023-02-19T14:46:52.392Z,13.40
2023-02-19T14:49:25.196Z,13.40
2023-02-19T14:51:56.289Z,13.50
2023-02-19T14:54:37.798Z,13.50
2023-02-19T14:57:07.927Z,13.50
2023-02-19T14:59:34.823Z,13.50
2023-02-19T15:02:03.150Z,13.60
2023-02-19T15:04:35.131Z,13.70
2023-02-19T15:07:06.557Z,13.80
2023-02-19T15:09:39.560Z,13.80
2023-02-19T15:12:07.391Z,13.80
2023-02-19T15:14:34.659Z,13.80
2023-02-19T15:17:04.680Z,13.90
2023-02-19T15:19:35.344Z,13.90
2023-02-19T15:22:03.068Z,13.90
2023-02-19T15:24:30.399Z,13.90
2023-02-19T15:26:58.726Z,13.80
2023-02-19T15:29:27.471Z,13.70
2023-02-19T15:31:56.584Z,13.50
2023-02-19T15:34:26.551Z,13.40
2023-02-19T15:36:57.295Z,13.30
2023-02-19T15:39:25.810Z,13.20
2023-02-19T15:41:57.983Z,13.20
2023-02-19T15:44:38.558Z,13.20
2023-02-19T15:47:14.235Z,13.20
2023-02-19T15:49:49.312Z,13.20
2023-02-19T15:52:28.469Z,13.10
2023-02-19T15:55:02.817Z,13.00
2023-02-19T15:57:35.440Z,13.00
2023-02-19T16:00:11.114Z,12.90
2023-02-19T16:02:38.493Z,12.80
2023-02-19T16:05:13.188Z,12.80
2023-02-19T16:07:40.220Z,12.70
2023-02-19T16:10:19.877Z,12.70
2023-02-19T16:12:56.199Z,12.70
2023-02-19T16:15:25.336Z,12.60
2023-02-19T16:17:52.949Z,12.60
2023-02-19T16:20:23.876Z,12.60
2023-02-19T16:22:51.427Z,12.50
2023-02-19T16:25:29.643Z,12.50
2023-02-19T16:27:57.504Z,12.40
2023-02-19T16:30:30.885Z,12.40
2023-02-19T16:33:20.261Z,12.30
2023-02-19T16:35:49.504Z,12.30
2023-02-19T16:38:17.940Z,12.20
2023-02-19T16:41:11.163Z,12.20
2023-02-19T16:43:40.460Z,12.20
2023-02-19T16:46:11.986Z,12.20
2023-02-19T16:48:39.382Z,12.20
2023-02-19T16:51:07.503Z,12.10
2023-02-19T16:53:34.903Z,12.10
2023-02-19T16:56:02.439Z,12.00
2023-02-19T16:58:29.445Z,11.80
2023-02-19T17:00:56.464Z,12.00
2023-02-19T17:03:25.640Z,12.00
2023-02-19T17:05:53.273Z,12.00
2023-02-19T17:08:29.018Z,12.00
2023-02-19T17:10:56.319Z,12.00
2023-02-19T17:13:23.220Z,12.00
2023-02-19T17:15:50.170Z,12.00
2023-02-19T17:18:16.985Z,12.00
2023-02-19T17:20:49.234Z,12.00
2023-02-19T17:23:16.118Z,11.90
2023-02-19T17:25:43.279Z,11.90
2023-02-19T17:28:10.198Z,11.90
2023-02-19T17:30:39.841Z,11.90
2023-02-19T17:33:06.970Z,11.90
2023-02-19T17:35:34.218Z,11.80
2023-02-19T17:38:09.378Z,11.80
2023-02-19T17:40:37.388Z,11.70
2023-02-19T17:43:04.714Z,11.60
2023-02-19T17:45:32.136Z,11.60
2023-02-19T17:47:59.769Z,11.60
2023-02-19T17:50:28.432Z,11.60
2023-02-19T17:52:55.379Z,11.60
2023-02-19T17:55:24.286Z,11.60
2023-02-19T17:57:52.408Z,11.60
2023-02-19T18:00:22.196Z,11.50
2023-02-19T18:02:49.276Z,11.40
2023-02-19T18:05:16.361Z,11.40
2023-02-19T18:07:43.585Z,11.40
2023-02-19T18:10:11.228Z,11.30
2023-02-19T18:12:40.066Z,11.30
2023-02-19T18:15:08.839Z,11.30
2023-02-19T18:17:36.352Z,11.30
2023-02-19T18:20:04.654Z,11.30
2023-02-19T18:22:32.313Z,11.30
2023-02-19T18:24:59.513Z,11.20
2023-02-19T18:27:26.433Z,11.20
2023-02-19T18:29:55.778Z,11.20
2023-02-19T18:32:23.899Z,11.20
2023-02-19T18:34:51.683Z,11.20
2023-02-19T18:37:19.249Z,11.10
2023-02-19T18:39:46.341Z,11.20
2023-02-19T18:42:13.660Z,11.20
2023-02-19T18:44:40.720Z,11.20
2023-02-19T18:47:09.780Z,11.20
2023-02-19T18:49:36.694Z,11.20
2023-02-19T18:52:03.993Z,11.20
2023-02-19T18:54:32.271Z,11.20
2023-02-19T18:57:00.697Z,11.20
2023-02-19T18:59:27.603Z,11.10
2023-02-19T19:01:54.528Z,11.20
2023-02-19T19:04:22.884Z,11.20
2023-02-19T19:06:49.730Z,11.20
2023-02-19T19:09:16.630Z,11.10
2023-02-19T19:11:44.437Z,11.10
2023-02-19T19:14:11.572Z,11.10
2023-02-19T19:16:38.559Z,11.00
2023-02-19T19:19:05.521Z,11.00
2023-02-19T19:21:33.747Z,11.00
2023-02-19T19:24:00.708Z,11.00
2023-02-19T19:26:28.019Z,10.90
2023-02-19T19:28:54.952Z,10.90
2023-02-19T19:31:22.838Z,11.00
2023-02-19T19:33:49.772Z,11.00
2023-02-19T19:36:20.152Z,11.00
2023-02-19T19:38:48.863Z,11.00
2023-02-19T19:41:17.599Z,11.00
2023-02-19T19:43:44.480Z,11.00
2023-02-19T19:46:11.751Z,11.00
2023-02-19T19:48:39.795Z,10.90
2023-02-19T19:51:08.018Z,10.90
2023-02-19T19:53:34.868Z,10.90
2023-02-19T19:56:03.889Z,10.90
2023-02-19T19:58:30.844Z,10.90
2023-02-19T20:00:59.082Z,10.90
2023-02-19T20:03:26.013Z,10.90
2023-02-19T20:05:53.033Z,10.90
2023-02-19T20:08:20.183Z,10.90
2023-02-19T20:10:47.125Z,11.00
2023-02-19T20:13:17.664Z,10.90
2023-02-19T20:15:44.680Z,10.90
2023-02-19T20:18:11.602Z,10.90
2023-02-19T20:20:38.417Z,10.90
2023-02-19T20:23:05.414Z,10.90
2023-02-19T20:25:32.247Z,10.90
2023-02-19T20:27:59.165Z,10.70
2023-02-19T20:30:27.468Z,10.90
2023-02-19T20:32:54.598Z,10.90
2023-02-19T20:35:21.510Z,10.90
2023-02-19T20:37:49.389Z,10.90
2023-02-19T20:40:18.141Z,10.90
2023-02-19T20:42:44.897Z,10.90
2023-02-19T20:45:11.889Z,10.90
2023-02-19T20:47:40.690Z,11.00
2023-02-19T20:50:08.629Z,10.90
2023-02-19T20:52:35.496Z,10.90
2023-02-19T20:55:02.464Z,10.90
2023-02-19T20:57:29.380Z,10.90
2023-02-19T20:59:56.326Z,10.90
2023-02-19T21:02:27.773Z,10.90
2023-02-19T21:04:56.638Z,10.90
2023-02-19T21:07:23.665Z,10.80
2023-02-19T21:09:52.069Z,10.80
2023-02-19T21:12:22.224Z,10.80
2023-02-19T21:14:49.567Z,10.80
2023-02-19T21:17:16.606Z,10.80
2023-02-19T21:19:43.625Z,10.80
2023-02-19T21:22:12.052Z,10.80
2023-02-19T21:24:38.929Z,10.80
2023-02-19T21:27:05.819Z,10.80
2023-02-19T21:29:32.754Z,10.70
2023-02-19T21:31:59.726Z,10.70
2023-02-19T21:34:28.324Z,10.70
2023-02-19T21:36:56.015Z,10.70
2023-02-19T21:39:27.752Z,10.70
2023-02-19T21:41:55.002Z,10.60
2023-02-19T21:44:21.995Z,10.60
2023-02-19T21:46:49.033Z,10.60
2023-02-19T21:49:16.504Z,10.60
2023-02-19T21:51:45.114Z,10.70
2023-02-19T21:54:15.537Z,10.70
2023-02-19T21:56:44.208Z,10.70
2023-02-19T21:59:11.221Z,10.80
2023-02-19T22:01:39.192Z,10.80
2023-02-19T22:04:06.334Z,11.00
2023-02-19T22:06:34.156Z,11.00
2023-02-19T22:09:01.472Z,11.00
2023-02-19T22:11:28.727Z,11.20
2023-02-19T22:13:57.000Z,11.10
2023-02-19T22:16:23.982Z,11.10
2023-02-19T22:18:52.927Z,11.10
2023-02-19T22:21:21.136Z,11.10
2023-02-19T22:23:49.652Z,11.10
2023-02-19T22:26:21.678Z,11.10
2023-02-19T22:28:48.596Z,11.10
2023-02-19T22:31:18.330Z,11.10
2023-02-19T22:33:45.231Z,11.00
2023-02-19T22:36:16.094Z,11.00
2023-02-19T22:38:43.326Z,11.00
2023-02-19T22:41:10.893Z,11.00
2023-02-19T22:43:38.883Z,11.00
2023-02-19T22:46:10.623Z,11.00
2023-02-19T22:48:39.223Z,11.00
2023-02-19T22:51:12.842Z,11.00
2023-02-19T22:53:43.756Z,11.00
2023-02-19T22:56:11.029Z,11.00
2023-02-19T22:58:38.275Z,11.00
2023-02-19T23:01:05.528Z,11.00
2023-02-19T23:03:32.518Z,11.00
2023-02-19T23:06:03.174Z,11.00
2023-02-19T23:08:30.026Z,11.00
2023-02-19T23:10:56.858Z,11.00
2023-02-19T23:13:24.149Z,11.00
2023-02-19T23:15:50.947Z,10.90
2023-02-19T23:18:17.821Z,10.90
2023-02-19T23:20:44.615Z,10.90
2023-02-19T23:23:12.851Z,10.90
2023-02-19T23:25:39.677Z,10.90
2023-02-19T23:28:06.628Z,10.90
2023-02-19T23:30:33.543Z,10.90
2023-02-19T23:33:00.638Z,10.80
2023-02-19T23:35:27.431Z,10.80
2023-02-19T23:37:55.822Z,10.70
2023-02-19T23:40:24.027Z,10.70
2023-02-19T23:42:50.972Z,10.70
2023-02-19T23:45:18.009Z,10.60
2023-02-19T23:47:44.913Z,10.50
2023-02-19T23:50:11.738Z,10.30
2023-02-19T23:52:38.603Z,10.20
2023-02-19T23:55:06.337Z,10.10
2023-02-19T23:57:34.588Z,10.10
